Terminal Aerodrome Forecast
Issued by NWS

Home | Current Version | Previous Version | Graphics & Text | Print | Product List | Glossary On
Versions: 1 2 3 4 5 6 7 8 9 10 11 12 13 14 15 16 17 18 19 20 21 22 23 24 25
000
FTUS42 KMHX 291700 RRA
TAFPGV
TAF
KPGV 291740Z 2918/3018 01005KT P6SM SCT080 OVC150
     FM292000 36005KT P6SM VCSH SCT050 BKN100
     FM300000 02003KT P6SM -RA SCT025 BKN080
     FM300600 01003KT 1SM BR BKN003
     FM301400 01005KT P6SM SCT100
      AMD LTD TO CLD VIS AND WIND=

USA.gov is the U.S. government's official web portal to all federal, state and local government web resources and services.